Del Rio International Airport Del Rio US
ICAO: KDRT
IATA: DRT
Category: Medium
Scheduled Services: No

Elevation: 1002 ft
TransAlt. 18000 ft.

Airport Communications:
APP:119.6
ASOS:118.525
CLNC DEL:120.5
DEP:119.6
SAN ANGELO RDO:122.3
CTAF/UNICOM:122.8

KDRT Zoom In..

If you have problems with the map follow the link
https://www.worldairports.se/pages/airport.php?
ICAO=KDRT

Runways:

(A) RW 13 length 6300 ft width 100 ft
ILS 111.90 / hdg 132

(B) RW 31 length 6300 ft width 100 ft
---- / hdg 312

Location; KDRT
Day. 24 / Time. 10.53 Zulu
* Altimeter: 30.00
* Temperature: 18° c. 64.4°f.
* Wind from: 130° Speed 09 kn.
Dewpoint: 18° c.
Visibility: 8 Statute Miles.
Clouds: Overcast 800 ft.

KDRT 241053Z AUTO 13009KT 8SM OVC008 18/18 A3000 RMK AO2 SLP146 T01830178


Wind From 130°
Speed 09 kn.

 
 
jpsmedia.com for Web Design worldairports.se 2019   terms of use